sensor_id;sensor_type;location;lat;lon;timestamp;pressure;altitude;pressure_sealevel;temperature;humidity
6851;BME280;3464;42.728;23.296;2022-11-15T00:00:44;95865.89;;;9.65;66.58
6851;BME280;3464;42.728;23.296;2022-11-15T00:03:13;95863.83;;;9.66;66.62
6851;BME280;3464;42.728;23.296;2022-11-15T00:05:37;95858.84;;;9.67;66.39
6851;BME280;3464;42.728;23.296;2022-11-15T00:08:04;95859.59;;;9.44;66.46
6851;BME280;3464;42.728;23.296;2022-11-15T00:10:31;95857.08;;;9.44;66.94
6851;BME280;3464;42.728;23.296;2022-11-15T00:12:57;95863.36;;;9.45;66.71
6851;BME280;3464;42.728;23.296;2022-11-15T00:15:24;95850.33;;;9.43;66.89
6851;BME280;3464;42.728;23.296;2022-11-15T00:17:50;95856.76;;;9.69;66.45
6851;BME280;3464;42.728;23.296;2022-11-15T00:20:17;95855.86;;;9.66;65.48
6851;BME280;3464;42.728;23.296;2022-11-15T00:22:43;95853.48;;;9.53;65.69
6851;BME280;3464;42.728;23.296;2022-11-15T00:25:10;95844.22;;;9.50;65.90
6851;BME280;3464;42.728;23.296;2022-11-15T00:27:37;95844.95;;;9.65;65.69
6851;BME280;3464;42.728;23.296;2022-11-15T00:30:04;95846.77;;;9.51;65.35
6851;BME280;3464;42.728;23.296;2022-11-15T00:32:31;95844.84;;;9.41;65.59
6851;BME280;3464;42.728;23.296;2022-11-15T00:34:58;95841.28;;;9.69;65.52
6851;BME280;3464;42.728;23.296;2022-11-15T00:37:24;95841.70;;;9.50;65.92
6851;BME280;3464;42.728;23.296;2022-11-15T00:39:51;95833.77;;;9.52;65.58
6851;BME280;3464;42.728;23.296;2022-11-15T00:42:18;95842.39;;;9.44;65.54
6851;BME280;3464;42.728;23.296;2022-11-15T00:44:45;95841.50;;;9.42;65.49
6851;BME280;3464;42.728;23.296;2022-11-15T00:47:11;95842.26;;;9.37;65.53
6851;BME280;3464;42.728;23.296;2022-11-15T00:49:38;95840.37;;;9.47;65.33
6851;BME280;3464;42.728;23.296;2022-11-15T00:52:04;95831.20;;;9.30;65.25
6851;BME280;3464;42.728;23.296;2022-11-15T00:54:32;95833.17;;;9.43;65.04
6851;BME280;3464;42.728;23.296;2022-11-15T00:56:58;95832.80;;;9.46;64.82
6851;BME280;3464;42.728;23.296;2022-11-15T00:59:25;95835.05;;;9.15;65.24
6851;BME280;3464;42.728;23.296;2022-11-15T01:01:51;95830.46;;;9.17;65.83
6851;BME280;3464;42.728;23.296;2022-11-15T01:04:18;95829.77;;;9.22;66.05
6851;BME280;3464;42.728;23.296;2022-11-15T01:06:44;95829.02;;;9.08;66.39
6851;BME280;3464;42.728;23.296;2022-11-15T01:09:13;95823.21;;;8.93;66.82
6851;BME280;3464;42.728;23.296;2022-11-15T01:11:40;95824.55;;;9.52;65.24
6851;BME280;3464;42.728;23.296;2022-11-15T01:14:06;95826.73;;;9.54;64.84
6851;BME280;3464;42.728;23.296;2022-11-15T01:16:33;95832.39;;;9.28;65.24
6851;BME280;3464;42.728;23.296;2022-11-15T01:18:59;95829.11;;;9.49;64.53
6851;BME280;3464;42.728;23.296;2022-11-15T01:21:26;95826.49;;;9.44;64.77
6851;BME280;3464;42.728;23.296;2022-11-15T01:23:55;95825.39;;;9.33;65.19
6851;BME280;3464;42.728;23.296;2022-11-15T01:26:23;95823.56;;;9.25;65.24
6851;BME280;3464;42.728;23.296;2022-11-15T01:28:49;95821.42;;;9.24;65.25
6851;BME280;3464;42.728;23.296;2022-11-15T01:31:16;95822.05;;;9.33;65.02
6851;BME280;3464;42.728;23.296;2022-11-15T01:33:42;95819.33;;;9.23;65.14
6851;BME280;3464;42.728;23.296;2022-11-15T01:36:14;95827.20;;;9.19;65.31
6851;BME280;3464;42.728;23.296;2022-11-15T01:38:40;95826.97;;;9.28;65.42
6851;BME280;3464;42.728;23.296;2022-11-15T01:41:14;95823.70;;;9.32;65.58
6851;BME280;3464;42.728;23.296;2022-11-15T01:43:35;95822.16;;;9.38;65.11
6851;BME280;3464;42.728;23.296;2022-11-15T01:46:02;95819.41;;;9.26;65.78
6851;BME280;3464;42.728;23.296;2022-11-15T01:48:29;95813.06;;;9.43;65.93
6851;BME280;3464;42.728;23.296;2022-11-15T01:50:54;95817.04;;;9.52;65.98
6851;BME280;3464;42.728;23.296;2022-11-15T01:53:21;95816.50;;;8.91;67.78
6851;BME280;3464;42.728;23.296;2022-11-15T01:55:47;95818.81;;;9.38;66.96
6851;BME280;3464;42.728;23.296;2022-11-15T01:58:13;95808.18;;;9.12;67.39
6851;BME280;3464;42.728;23.296;2022-11-15T02:00:40;95811.38;;;9.05;68.50
6851;BME280;3464;42.728;23.296;2022-11-15T02:03:06;95818.62;;;8.93;69.31
6851;BME280;3464;42.728;23.296;2022-11-15T02:05:33;95816.61;;;8.96;69.42
6851;BME280;3464;42.728;23.296;2022-11-15T02:08:00;95809.76;;;8.90;70.19
6851;BME280;3464;42.728;23.296;2022-11-15T02:10:28;95800.11;;;8.89;69.50
6851;BME280;3464;42.728;23.296;2022-11-15T02:12:54;95810.23;;;8.91;69.44
6851;BME280;3464;42.728;23.296;2022-11-15T02:15:21;95807.17;;;8.87;69.68
6851;BME280;3464;42.728;23.296;2022-11-15T02:17:56;95806.25;;;9.01;69.02
6851;BME280;3464;42.728;23.296;2022-11-15T02:20:33;95812.56;;;9.02;68.74
6851;BME280;3464;42.728;23.296;2022-11-15T02:25:39;95813.52;;;9.25;68.68
6851;BME280;3464;42.728;23.296;2022-11-15T02:28:26;95817.20;;;9.41;67.68
6851;BME280;3464;42.728;23.296;2022-11-15T02:30:53;95803.39;;;9.81;66.57
6851;BME280;3464;42.728;23.296;2022-11-15T02:33:41;95807.38;;;9.32;67.51
6851;BME280;3464;42.728;23.296;2022-11-15T02:36:06;95800.78;;;9.76;66.72
6851;BME280;3464;42.728;23.296;2022-11-15T02:38:44;95799.71;;;9.45;66.57
6851;BME280;3464;42.728;23.296;2022-11-15T02:41:10;95798.36;;;9.81;66.10
6851;BME280;3464;42.728;23.296;2022-11-15T02:43:42;95801.25;;;9.79;65.78
6851;BME280;3464;42.728;23.296;2022-11-15T02:46:18;95797.22;;;9.67;65.86
6851;BME280;3464;42.728;23.296;2022-11-15T02:48:43;95803.48;;;9.64;66.13
6851;BME280;3464;42.728;23.296;2022-11-15T02:51:09;95808.56;;;9.67;65.43
6851;BME280;3464;42.728;23.296;2022-11-15T02:53:36;95799.31;;;9.66;65.49
6851;BME280;3464;42.728;23.296;2022-11-15T02:56:02;95797.66;;;9.66;65.66
6851;BME280;3464;42.728;23.296;2022-11-15T03:01:26;95807.53;;;10.00;65.61
6851;BME280;3464;42.728;23.296;2022-11-15T03:03:59;95811.42;;;10.06;65.79
6851;BME280;3464;42.728;23.296;2022-11-15T03:06:39;95808.57;;;10.09;65.47
6851;BME280;3464;42.728;23.296;2022-11-15T03:09:06;95809.03;;;9.92;66.15
6851;BME280;3464;42.728;23.296;2022-11-15T03:11:33;95806.52;;;9.71;65.85
6851;BME280;3464;42.728;23.296;2022-11-15T03:14:12;95804.83;;;9.70;65.67
6851;BME280;3464;42.728;23.296;2022-11-15T03:16:50;95800.97;;;9.85;65.89
6851;BME280;3464;42.728;23.296;2022-11-15T03:19:29;95790.79;;;9.80;65.89
6851;BME280;3464;42.728;23.296;2022-11-15T03:21:55;95797.98;;;9.43;66.54
6851;BME280;3464;42.728;23.296;2022-11-15T03:24:22;95791.94;;;9.35;66.90
6851;BME280;3464;42.728;23.296;2022-11-15T03:26:48;95790.84;;;9.62;66.93
6851;BME280;3464;42.728;23.296;2022-11-15T03:29:17;95794.88;;;9.55;66.95
6851;BME280;3464;42.728;23.296;2022-11-15T03:31:44;95796.44;;;9.89;66.47
6851;BME280;3464;42.728;23.296;2022-11-15T03:34:20;95791.09;;;9.95;66.17
6851;BME280;3464;42.728;23.296;2022-11-15T03:36:45;95783.41;;;10.09;64.96
6851;BME280;3464;42.728;23.296;2022-11-15T03:39:12;95787.81;;;10.21;64.94
6851;BME280;3464;42.728;23.296;2022-11-15T03:41:46;95788.06;;;9.90;65.27
6851;BME280;3464;42.728;23.296;2022-11-15T03:44:45;95778.56;;;9.75;65.86
6851;BME280;3464;42.728;23.296;2022-11-15T03:49:30;95785.58;;;9.70;66.07
6851;BME280;3464;42.728;23.296;2022-11-15T03:51:57;95774.94;;;9.62;67.12
6851;BME280;3464;42.728;23.296;2022-11-15T03:54:23;95777.81;;;9.60;68.28
6851;BME280;3464;42.728;23.296;2022-11-15T03:56:49;95776.17;;;9.82;68.43
6851;BME280;3464;42.728;23.296;2022-11-15T03:59:16;95772.61;;;9.71;68.95
6851;BME280;3464;42.728;23.296;2022-11-15T04:01:43;95769.73;;;10.16;67.70
6851;BME280;3464;42.728;23.296;2022-11-15T04:04:10;95769.66;;;9.92;67.43
6851;BME280;3464;42.728;23.296;2022-11-15T04:06:37;95775.44;;;10.31;66.93
6851;BME280;3464;42.728;23.296;2022-11-15T04:09:03;95770.72;;;10.50;66.35
6851;BME280;3464;42.728;23.296;2022-11-15T04:11:30;95765.95;;;10.64;65.33
6851;BME280;3464;42.728;23.296;2022-11-15T04:13:57;95765.64;;;10.45;65.70
6851;BME280;3464;42.728;23.296;2022-11-15T04:16:23;95762.53;;;10.60;65.30
6851;BME280;3464;42.728;23.296;2022-11-15T04:18:50;95761.09;;;10.26;66.25
6851;BME280;3464;42.728;23.296;2022-11-15T04:21:16;95762.22;;;10.42;65.68
6851;BME280;3464;42.728;23.296;2022-11-15T04:23:48;95761.86;;;10.46;65.70
6851;BME280;3464;42.728;23.296;2022-11-15T04:26:30;95761.29;;;9.92;66.92
6851;BME280;3464;42.728;23.296;2022-11-15T04:28:56;95759.85;;;9.84;67.46
6851;BME280;3464;42.728;23.296;2022-11-15T04:31:28;95764.02;;;9.83;67.36
6851;BME280;3464;42.728;23.296;2022-11-15T04:33:55;95763.68;;;9.87;67.48
6851;BME280;3464;42.728;23.296;2022-11-15T04:36:21;95763.06;;;9.99;67.73
6851;BME280;3464;42.728;23.296;2022-11-15T04:38:53;95753.23;;;9.87;67.36
6851;BME280;3464;42.728;23.296;2022-11-15T04:41:20;95759.03;;;10.06;66.56
6851;BME280;3464;42.728;23.296;2022-11-15T04:43:47;95760.98;;;10.44;66.32
6851;BME280;3464;42.728;23.296;2022-11-15T04:46:22;95762.89;;;10.10;66.40
6851;BME280;3464;42.728;23.296;2022-11-15T04:48:51;95762.00;;;10.54;65.77
6851;BME280;3464;42.728;23.296;2022-11-15T04:51:25;95764.00;;;10.24;66.40
6851;BME280;3464;42.728;23.296;2022-11-15T04:53:52;95763.37;;;10.36;66.00
6851;BME280;3464;42.728;23.296;2022-11-15T04:56:19;95762.29;;;10.47;66.07
6851;BME280;3464;42.728;23.296;2022-11-15T04:58:48;95764.66;;;9.94;67.24
6851;BME280;3464;42.728;23.296;2022-11-15T05:01:13;95768.90;;;10.16;66.70
6851;BME280;3464;42.728;23.296;2022-11-15T05:03:41;95771.64;;;10.29;65.81
6851;BME280;3464;42.728;23.296;2022-11-15T05:06:13;95769.69;;;9.94;66.25
6851;BME280;3464;42.728;23.296;2022-11-15T05:08:40;95772.11;;;9.89;66.39
6851;BME280;3464;42.728;23.296;2022-11-15T05:11:06;95774.17;;;9.66;67.09
6851;BME280;3464;42.728;23.296;2022-11-15T05:13:33;95771.22;;;9.87;67.09
6851;BME280;3464;42.728;23.296;2022-11-15T05:16:00;95773.46;;;9.94;66.54
6851;BME280;3464;42.728;23.296;2022-11-15T05:18:26;95772.32;;;10.00;66.07
6851;BME280;3464;42.728;23.296;2022-11-15T05:20:53;95768.02;;;9.72;66.04
6851;BME280;3464;42.728;23.296;2022-11-15T05:23:19;95767.50;;;9.08;67.24
6851;BME280;3464;42.728;23.296;2022-11-15T05:25:47;95765.48;;;9.52;67.13
6851;BME280;3464;42.728;23.296;2022-11-15T05:28:14;95763.87;;;9.75;66.45
6851;BME280;3464;42.728;23.296;2022-11-15T05:30:41;95759.88;;;9.86;66.16
6851;BME280;3464;42.728;23.296;2022-11-15T05:33:07;95755.80;;;9.48;66.60
6851;BME280;3464;42.728;23.296;2022-11-15T05:35:37;95756.99;;;9.45;67.14
6851;BME280;3464;42.728;23.296;2022-11-15T05:38:01;95757.92;;;9.71;66.26
6851;BME280;3464;42.728;23.296;2022-11-15T05:40:28;95750.11;;;9.57;66.58
6851;BME280;3464;42.728;23.296;2022-11-15T05:42:54;95765.50;;;9.72;66.08
6851;BME280;3464;42.728;23.296;2022-11-15T05:45:21;95756.82;;;9.78;66.48
6851;BME280;3464;42.728;23.296;2022-11-15T05:47:47;95761.20;;;9.89;66.41
6851;BME280;3464;42.728;23.296;2022-11-15T05:50:14;95761.86;;;10.22;65.75
6851;BME280;3464;42.728;23.296;2022-11-15T05:52:40;95770.67;;;10.22;65.55
6851;BME280;3464;42.728;23.296;2022-11-15T05:55:07;95771.64;;;10.29;65.53
6851;BME280;3464;42.728;23.296;2022-11-15T05:57:34;95773.00;;;9.92;66.24
6851;BME280;3464;42.728;23.296;2022-11-15T06:00:01;95774.70;;;9.70;66.98
6851;BME280;3464;42.728;23.296;2022-11-15T06:02:28;95776.27;;;10.30;65.96
6851;BME280;3464;42.728;23.296;2022-11-15T06:04:54;95777.34;;;10.43;65.67
6851;BME280;3464;42.728;23.296;2022-11-15T06:07:21;95777.64;;;10.13;66.07
6851;BME280;3464;42.728;23.296;2022-11-15T06:09:47;95777.25;;;10.63;65.45
6851;BME280;3464;42.728;23.296;2022-11-15T06:12:14;95774.81;;;10.68;64.98
6851;BME280;3464;42.728;23.296;2022-11-15T06:14:40;95779.05;;;10.46;65.51
6851;BME280;3464;42.728;23.296;2022-11-15T06:17:09;95761.00;;;10.46;65.26
6851;BME280;3464;42.728;23.296;2022-11-15T06:19:36;95775.95;;;10.60;65.52
6851;BME280;3464;42.728;23.296;2022-11-15T06:22:02;95764.69;;;10.65;65.49
6851;BME280;3464;42.728;23.296;2022-11-15T06:24:29;95764.86;;;10.75;65.63
6851;BME280;3464;42.728;23.296;2022-11-15T06:26:56;95773.80;;;10.84;65.97
6851;BME280;3464;42.728;23.296;2022-11-15T06:29:23;95767.86;;;10.53;66.44
6851;BME280;3464;42.728;23.296;2022-11-15T06:31:49;95766.69;;;10.86;66.68
6851;BME280;3464;42.728;23.296;2022-11-15T06:34:16;95764.39;;;11.00;65.59
6851;BME280;3464;42.728;23.296;2022-11-15T06:36:42;95765.67;;;11.01;65.96
6851;BME280;3464;42.728;23.296;2022-11-15T06:39:09;95760.73;;;10.79;66.47
6851;BME280;3464;42.728;23.296;2022-11-15T06:41:36;95766.70;;;10.85;67.24
6851;BME280;3464;42.728;23.296;2022-11-15T06:44:03;95762.28;;;10.98;67.12
6851;BME280;3464;42.728;23.296;2022-11-15T06:46:30;95764.06;;;11.35;66.93
6851;BME280;3464;42.728;23.296;2022-11-15T06:48:57;95766.57;;;11.05;67.06
6851;BME280;3464;42.728;23.296;2022-11-15T06:51:23;95765.27;;;11.01;67.57
6851;BME280;3464;42.728;23.296;2022-11-15T06:53:50;95760.58;;;11.27;67.58
6851;BME280;3464;42.728;23.296;2022-11-15T06:56:16;95756.70;;;11.18;67.46
6851;BME280;3464;42.728;23.296;2022-11-15T06:58:43;95762.65;;;11.54;66.50
6851;BME280;3464;42.728;23.296;2022-11-15T07:01:10;95764.29;;;11.52;66.24
6851;BME280;3464;42.728;23.296;2022-11-15T07:03:37;95762.17;;;11.51;67.06
6851;BME280;3464;42.728;23.296;2022-11-15T07:06:03;95764.03;;;11.62;66.51
6851;BME280;3464;42.728;23.296;2022-11-15T07:08:29;95759.17;;;11.78;66.75
6851;BME280;3464;42.728;23.296;2022-11-15T07:10:58;95763.08;;;11.57;66.83
6851;BME280;3464;42.728;23.296;2022-11-15T07:13:25;95754.80;;;12.00;66.44
6851;BME280;3464;42.728;23.296;2022-11-15T07:15:52;95753.19;;;12.06;64.83
6851;BME280;3464;42.728;23.296;2022-11-15T07:18:21;95750.17;;;11.62;67.44
6851;BME280;3464;42.728;23.296;2022-11-15T07:20:47;95754.05;;;11.70;66.75
6851;BME280;3464;42.728;23.296;2022-11-15T07:23:14;95756.17;;;11.72;66.52
6851;BME280;3464;42.728;23.296;2022-11-15T07:25:41;95758.51;;;11.60;66.85
6851;BME280;3464;42.728;23.296;2022-11-15T07:28:08;95758.25;;;12.07;66.14
6851;BME280;3464;42.728;23.296;2022-11-15T07:30:35;95753.17;;;12.04;65.85
6851;BME280;3464;42.728;23.296;2022-11-15T07:33:03;95754.98;;;12.17;65.64
6851;BME280;3464;42.728;23.296;2022-11-15T07:35:30;95756.98;;;11.68;66.73
6851;BME280;3464;42.728;23.296;2022-11-15T07:37:59;95758.42;;;11.87;66.41
6851;BME280;3464;42.728;23.296;2022-11-15T07:40:26;95753.38;;;12.26;65.64
6851;BME280;3464;42.728;23.296;2022-11-15T07:42:52;95750.44;;;12.25;65.42
6851;BME280;3464;42.728;23.296;2022-11-15T07:45:19;95754.09;;;12.13;66.18
6851;BME280;3464;42.728;23.296;2022-11-15T07:47:46;95758.70;;;11.72;66.88
6851;BME280;3464;42.728;23.296;2022-11-15T07:50:13;95759.37;;;11.95;66.20
6851;BME280;3464;42.728;23.296;2022-11-15T07:52:40;95756.19;;;11.75;66.44
6851;BME280;3464;42.728;23.296;2022-11-15T07:55:07;95753.05;;;12.33;65.34
6851;BME280;3464;42.728;23.296;2022-11-15T07:57:33;95752.98;;;12.27;65.51
6851;BME280;3464;42.728;23.296;2022-11-15T08:00:00;95754.11;;;12.12;65.70
6851;BME280;3464;42.728;23.296;2022-11-15T08:02:26;95747.49;;;12.72;64.98
6851;BME280;3464;42.728;23.296;2022-11-15T08:04:53;95748.66;;;13.11;63.39
6851;BME280;3464;42.728;23.296;2022-11-15T08:07:19;95749.52;;;12.62;65.51
6851;BME280;3464;42.728;23.296;2022-11-15T08:09:46;95747.14;;;12.78;63.54
6851;BME280;3464;42.728;23.296;2022-11-15T08:12:14;95747.59;;;12.86;64.85
6851;BME280;3464;42.728;23.296;2022-11-15T08:14:41;95741.05;;;12.55;65.87
6851;BME280;3464;42.728;23.296;2022-11-15T08:17:07;95748.83;;;12.83;67.26
6851;BME280;3464;42.728;23.296;2022-11-15T08:19:36;95736.88;;;13.14;64.12
6851;BME280;3464;42.728;23.296;2022-11-15T08:22:03;95738.78;;;12.88;63.65
6851;BME280;3464;42.728;23.296;2022-11-15T08:24:29;95707.10;;;12.25;64.83
6851;BME280;3464;42.728;23.296;2022-11-15T08:26:56;95729.94;;;12.87;63.98
6851;BME280;3464;42.728;23.296;2022-11-15T08:29:22;95719.74;;;12.79;64.38
6851;BME280;3464;42.728;23.296;2022-11-15T08:31:49;95726.73;;;13.10;64.12
6851;BME280;3464;42.728;23.296;2022-11-15T08:34:15;95729.71;;;13.13;64.25
6851;BME280;3464;42.728;23.296;2022-11-15T08:36:42;95727.47;;;12.98;65.76
6851;BME280;3464;42.728;23.296;2022-11-15T08:39:11;95730.11;;;13.11;64.06
6851;BME280;3464;42.728;23.296;2022-11-15T08:41:41;95724.33;;;13.29;63.32
6851;BME280;3464;42.728;23.296;2022-11-15T08:44:08;95722.16;;;13.19;64.34
6851;BME280;3464;42.728;23.296;2022-11-15T08:46:34;95727.70;;;13.27;62.89
6851;BME280;3464;42.728;23.296;2022-11-15T08:49:01;95721.41;;;13.31;62.22
6851;BME280;3464;42.728;23.296;2022-11-15T08:51:27;95711.73;;;13.37;62.80
6851;BME280;3464;42.728;23.296;2022-11-15T08:53:54;95706.63;;;13.29;62.96
6851;BME280;3464;42.728;23.296;2022-11-15T08:56:21;95706.20;;;13.29;62.10
6851;BME280;3464;42.728;23.296;2022-11-15T08:58:49;95706.84;;;13.84;61.15
6851;BME280;3464;42.728;23.296;2022-11-15T09:01:17;95704.68;;;13.66;62.73
6851;BME280;3464;42.728;23.296;2022-11-15T09:03:42;95698.48;;;14.17;61.11
6851;BME280;3464;42.728;23.296;2022-11-15T09:06:09;95696.38;;;14.09;61.04
6851;BME280;3464;42.728;23.296;2022-11-15T09:08:35;95697.94;;;13.67;61.66
6851;BME280;3464;42.728;23.296;2022-11-15T09:11:04;95690.77;;;13.66;61.84
6851;BME280;3464;42.728;23.296;2022-11-15T09:13:30;95690.61;;;13.30;62.68
6851;BME280;3464;42.728;23.296;2022-11-15T09:15:57;95686.50;;;13.56;62.34
6851;BME280;3464;42.728;23.296;2022-11-15T09:18:23;95683.13;;;13.55;62.79
6851;BME280;3464;42.728;23.296;2022-11-15T09:20:50;95684.38;;;13.51;62.56
6851;BME280;3464;42.728;23.296;2022-11-15T09:23:16;95683.22;;;12.92;63.54
6851;BME280;3464;42.728;23.296;2022-11-15T09:25:43;95677.64;;;12.78;63.35
6851;BME280;3464;42.728;23.296;2022-11-15T09:28:09;95676.14;;;13.00;63.49
6851;BME280;3464;42.728;23.296;2022-11-15T09:30:36;95664.98;;;13.48;62.64
6851;BME280;3464;42.728;23.296;2022-11-15T09:33:09;95666.28;;;13.50;63.54
6851;BME280;3464;42.728;23.296;2022-11-15T09:35:35;95667.09;;;13.46;62.96
6851;BME280;3464;42.728;23.296;2022-11-15T09:38:04;95662.53;;;13.73;62.33
6851;BME280;3464;42.728;23.296;2022-11-15T09:40:32;95657.41;;;13.56;61.33
6851;BME280;3464;42.728;23.296;2022-11-15T09:43:04;95654.94;;;13.71;62.36
6851;BME280;3464;42.728;23.296;2022-11-15T09:45:32;95650.69;;;13.64;63.39
6851;BME280;3464;42.728;23.296;2022-11-15T09:48:18;95642.78;;;14.07;61.78
6851;BME280;3464;42.728;23.296;2022-11-15T09:50:47;95643.63;;;14.23;60.36
6851;BME280;3464;42.728;23.296;2022-11-15T09:53:13;95638.99;;;13.99;60.07
6851;BME280;3464;42.728;23.296;2022-11-15T09:55:46;95636.80;;;13.73;60.41
6851;BME280;3464;42.728;23.296;2022-11-15T10:01:07;95626.73;;;13.81;61.12
6851;BME280;3464;42.728;23.296;2022-11-15T10:03:36;95630.16;;;14.26;62.04
6851;BME280;3464;42.728;23.296;2022-11-15T10:06:02;95628.44;;;13.96;60.38
6851;BME280;3464;42.728;23.296;2022-11-15T10:08:31;95620.86;;;14.47;60.40
6851;BME280;3464;42.728;23.296;2022-11-15T10:11:01;95618.76;;;14.48;60.04
6851;BME280;3464;42.728;23.296;2022-11-15T10:13:30;95612.83;;;14.59;59.42
6851;BME280;3464;42.728;23.296;2022-11-15T10:15:59;95610.27;;;14.76;58.71
6851;BME280;3464;42.728;23.296;2022-11-15T10:18:31;95606.84;;;14.99;58.11
6851;BME280;3464;42.728;23.296;2022-11-15T10:20:58;95608.90;;;15.16;57.32
6851;BME280;3464;42.728;23.296;2022-11-15T10:23:24;95606.88;;;15.85;55.72
6851;BME280;3464;42.728;23.296;2022-11-15T10:25:54;95600.21;;;15.71;55.49
6851;BME280;3464;42.728;23.296;2022-11-15T10:28:24;95596.17;;;15.38;57.14
6851;BME280;3464;42.728;23.296;2022-11-15T10:30:50;95593.19;;;15.41;56.74
6851;BME280;3464;42.728;23.296;2022-11-15T10:33:25;95585.39;;;15.71;56.61
6851;BME280;3464;42.728;23.296;2022-11-15T10:36:13;95576.77;;;16.50;55.13
6851;BME280;3464;42.728;23.296;2022-11-15T10:38:16;95563.25;;;16.42;55.03
6851;BME280;3464;42.728;23.296;2022-11-15T10:40:43;95575.34;;;15.53;55.65
6851;BME280;3464;42.728;23.296;2022-11-15T10:43:16;95571.91;;;14.42;58.09
6851;BME280;3464;42.728;23.296;2022-11-15T10:45:41;95561.64;;;14.98;58.25
6851;BME280;3464;42.728;23.296;2022-11-15T10:48:22;95554.37;;;15.15;56.76
6851;BME280;3464;42.728;23.296;2022-11-15T10:50:50;95554.03;;;14.98;57.17
6851;BME280;3464;42.728;23.296;2022-11-15T10:53:24;95556.41;;;15.37;56.81
6851;BME280;3464;42.728;23.296;2022-11-15T10:55:52;95545.80;;;15.47;56.63
6851;BME280;3464;42.728;23.296;2022-11-15T10:58:39;95543.31;;;15.32;56.51
6851;BME280;3464;42.728;23.296;2022-11-15T11:01:12;95544.90;;;14.41;58.67
6851;BME280;3464;42.728;23.296;2022-11-15T11:03:38;95537.72;;;14.14;59.56
6851;BME280;3464;42.728;23.296;2022-11-15T11:06:08;95539.84;;;14.27;59.40
6851;BME280;3464;42.728;23.296;2022-11-15T11:08:33;95532.34;;;15.24;58.41
6851;BME280;3464;42.728;23.296;2022-11-15T11:11:01;95526.59;;;15.73;56.76
6851;BME280;3464;42.728;23.296;2022-11-15T11:13:28;95531.03;;;15.36;57.20
6851;BME280;3464;42.728;23.296;2022-11-15T11:16:19;95528.48;;;15.45;57.08
6851;BME280;3464;42.728;23.296;2022-11-15T11:18:54;95514.44;;;15.58;56.63
6851;BME280;3464;42.728;23.296;2022-11-15T11:21:26;95515.07;;;15.13;56.98
6851;BME280;3464;42.728;23.296;2022-11-15T11:23:58;95507.13;;;14.94;58.10
6851;BME280;3464;42.728;23.296;2022-11-15T11:26:35;95500.98;;;14.46;58.98
6851;BME280;3464;42.728;23.296;2022-11-15T11:29:23;95495.38;;;14.77;58.60
6851;BME280;3464;42.728;23.296;2022-11-15T11:31:57;95493.84;;;14.28;59.40
6851;BME280;3464;42.728;23.296;2022-11-15T11:34:33;95488.77;;;14.44;59.50
6851;BME280;3464;42.728;23.296;2022-11-15T11:37:03;95483.65;;;14.55;58.98
6851;BME280;3464;42.728;23.296;2022-11-15T11:42:25;95467.59;;;14.58;59.09
6851;BME280;3464;42.728;23.296;2022-11-15T11:47:43;95463.00;;;14.42;59.52
6851;BME280;3464;42.728;23.296;2022-11-15T11:50:15;95454.48;;;14.61;59.14
6851;BME280;3464;42.728;23.296;2022-11-15T11:53:01;95455.43;;;14.35;59.84
6851;BME280;3464;42.728;23.296;2022-11-15T11:55:28;95447.44;;;14.11;59.83
6851;BME280;3464;42.728;23.296;2022-11-15T12:00:29;95439.38;;;14.43;59.83
6851;BME280;3464;42.728;23.296;2022-11-15T12:03:20;95436.42;;;14.41;59.47
6851;BME280;3464;42.728;23.296;2022-11-15T12:05:48;95431.81;;;14.29;60.08
6851;BME280;3464;42.728;23.296;2022-11-15T12:08:45;95424.19;;;14.40;59.70
6851;BME280;3464;42.728;23.296;2022-11-15T12:11:15;95419.95;;;14.37;60.01
6851;BME280;3464;42.728;23.296;2022-11-15T12:13:41;95407.84;;;14.99;58.92
6851;BME280;3464;42.728;23.296;2022-11-15T12:16:27;95413.14;;;15.25;57.61
6851;BME280;3464;42.728;23.296;2022-11-15T12:18:53;95408.29;;;14.95;58.45
6851;BME280;3464;42.728;23.296;2022-11-15T12:21:37;95402.17;;;14.51;59.41
6851;BME280;3464;42.728;23.296;2022-11-15T12:24:02;95404.27;;;14.53;59.42
6851;BME280;3464;42.728;23.296;2022-11-15T12:26:31;95400.98;;;14.38;59.66
6851;BME280;3464;42.728;23.296;2022-11-15T12:28:58;95396.20;;;14.65;59.43
6851;BME280;3464;42.728;23.296;2022-11-15T12:31:38;95391.16;;;14.61;59.89
6851;BME280;3464;42.728;23.296;2022-11-15T12:36:38;95387.90;;;14.35;60.49
6851;BME280;3464;42.728;23.296;2022-11-15T12:39:09;95381.89;;;14.55;60.17
6851;BME280;3464;42.728;23.296;2022-11-15T12:41:37;95381.50;;;14.47;60.49
6851;BME280;3464;42.728;23.296;2022-11-15T12:44:03;95375.66;;;14.33;60.70
6851;BME280;3464;42.728;23.296;2022-11-15T12:47:01;95375.58;;;14.52;60.43
6851;BME280;3464;42.728;23.296;2022-11-15T12:49:42;95368.20;;;14.84;59.57
6851;BME280;3464;42.728;23.296;2022-11-15T12:52:08;95371.80;;;14.46;60.53
6851;BME280;3464;42.728;23.296;2022-11-15T12:54:52;95363.56;;;14.88;59.59
6851;BME280;3464;42.728;23.296;2022-11-15T12:57:27;95370.83;;;14.75;59.86
6851;BME280;3464;42.728;23.296;2022-11-15T12:59:54;95367.10;;;14.60;59.87
6851;BME280;3464;42.728;23.296;2022-11-15T13:02:23;95363.26;;;14.69;59.59
6851;BME280;3464;42.728;23.296;2022-11-15T13:04:50;95347.49;;;14.89;59.35
6851;BME280;3464;42.728;23.296;2022-11-15T13:09:55;95350.91;;;14.83;59.49
6851;BME280;3464;42.728;23.296;2022-11-15T13:15:38;95340.35;;;14.83;59.77
6851;BME280;3464;42.728;23.296;2022-11-15T13:18:27;95342.77;;;14.29;61.00
6851;BME280;3464;42.728;23.296;2022-11-15T13:20:52;95338.54;;;14.21;61.50
6851;BME280;3464;42.728;23.296;2022-11-15T13:23:20;95331.53;;;14.74;60.50
6851;BME280;3464;42.728;23.296;2022-11-15T13:25:50;95330.17;;;14.87;60.13
6851;BME280;3464;42.728;23.296;2022-11-15T13:28:30;95330.06;;;14.38;61.10
6851;BME280;3464;42.728;23.296;2022-11-15T13:30:59;95329.20;;;14.44;61.40
6851;BME280;3464;42.728;23.296;2022-11-15T13:33:36;95324.89;;;14.59;60.97
6851;BME280;3464;42.728;23.296;2022-11-15T13:36:46;95324.45;;;14.63;60.81
6851;BME280;3464;42.728;23.296;2022-11-15T13:39:32;95319.94;;;14.38;61.75
6851;BME280;3464;42.728;23.296;2022-11-15T13:41:59;95324.30;;;14.81;60.59
6851;BME280;3464;42.728;23.296;2022-11-15T13:44:26;95327.73;;;14.74;60.93
6851;BME280;3464;42.728;23.296;2022-11-15T13:49:53;95320.92;;;14.83;60.28
6851;BME280;3464;42.728;23.296;2022-11-15T13:55:23;95319.59;;;14.14;62.48
6851;BME280;3464;42.728;23.296;2022-11-15T13:57:56;95321.27;;;14.14;62.55